Time;durP1;ratioP1;P1;durP2;ratioP2;P2;SDS_P1;SDS_P2;PMS_P1;PMS_P2;Temp;Humidity;BMP_temperature;BMP_pressure;BME280_temperature;BME280_humidity;BME280_pressure;Samples;Min_cycle;Max_cycle;Signal;HPM_P1;HPM_P2
2024/03/28 00:00:23;;;;;;;8.10;2.63;;;;;;;;;;6097174;23;20183;-81
2024/03/28 00:02:49;;;;;;;4.47;2.00;;;;;;;;;;6073221;23;20173;-82
2024/03/28 00:05:16;;;;;;;5.93;2.30;;;;;;;;;;6097533;23;20173;-81
2024/03/28 00:07:48;;;;;;;5.93;2.30;;;;;;;;;;6097152;23;20170;-81
2024/03/28 00:10:14;;;;;;;7.40;2.50;;;;;;;;;;6073596;23;20161;-80
2024/03/28 00:12:40;;;;;;;6.20;2.20;;;;;;;;;;6073298;23;20174;-81
2024/03/28 00:15:06;;;;;;;8.23;2.53;;;;;;;;;;6073442;23;20216;-81
2024/03/28 00:17:34;;;;;;;6.00;2.33;;;;;;;;;;6097167;23;20251;-81
2024/03/28 00:20:00;;;;;;;7.80;2.53;;;;;;;;;;6097615;23;20248;-81
2024/03/28 00:22:26;;;;;;;7.37;2.20;;;;;;;;;;6097045;23;20212;-81
2024/03/28 00:24:52;;;;;;;6.87;2.73;;;;;;;;;;6049457;23;20180;-80
2024/03/28 00:27:18;;;;;;;7.47;2.30;;;;;;;;;;6096740;23;20240;-80
2024/03/28 00:29:45;;;;;;;7.03;2.80;;;;;;;;;;6096911;23;20176;-80
2024/03/28 00:32:12;;;;;;;8.13;2.80;;;;;;;;;;6096669;23;20193;-79
2024/03/28 00:34:38;;;;;;;5.57;2.57;;;;;;;;;;6072590;23;20288;-80
2024/03/28 00:37:04;;;;;;;8.47;2.90;;;;;;;;;;6049118;23;20195;-81
2024/03/28 00:39:30;;;;;;;8.03;2.63;;;;;;;;;;6096838;23;20264;-81
2024/03/28 00:41:56;;;;;;;5.87;2.43;;;;;;;;;;6072793;23;20196;-81
2024/03/28 00:44:22;;;;;;;8.37;2.53;;;;;;;;;;6073275;23;20169;-81
2024/03/28 00:46:48;;;;;;;5.03;2.23;;;;;;;;;;6073142;23;20192;-81
2024/03/28 00:49:17;;;;;;;8.07;2.73;;;;;;;;;;6074272;23;20166;-80
2024/03/28 00:51:47;;;;;;;9.20;3.00;;;;;;;;;;6097341;23;20248;-81
2024/03/28 00:54:13;;;;;;;7.07;2.57;;;;;;;;;;6097258;23;20172;-81
2024/03/28 00:56:39;;;;;;;6.57;2.90;;;;;;;;;;6097282;23;20188;-80
2024/03/28 00:59:08;;;;;;;5.77;2.77;;;;;;;;;;6074500;23;20632;-80
2024/03/28 01:01:36;;;;;;;5.73;2.40;;;;;;;;;;6075606;23;20172;-81
2024/03/28 01:04:04;;;;;;;7.73;2.60;;;;;;;;;;6075130;23;20170;-81
2024/03/28 01:06:31;;;;;;;5.50;2.27;;;;;;;;;;6099112;23;20212;-82
2024/03/28 01:08:56;;;;;;;6.27;2.43;;;;;;;;;;6075495;23;20172;-82
2024/03/28 01:11:23;;;;;;;5.40;2.13;;;;;;;;;;6098652;23;20244;-81
2024/03/28 01:13:49;;;;;;;5.63;2.37;;;;;;;;;;6073439;23;20165;-81
2024/03/28 01:16:15;;;;;;;6.40;2.30;;;;;;;;;;6074269;23;20252;-81
2024/03/28 01:18:41;;;;;;;5.27;2.27;;;;;;;;;;6050952;23;20220;-81
2024/03/28 01:21:07;;;;;;;4.70;2.00;;;;;;;;;;6074928;23;20233;-81
2024/03/28 01:23:36;;;;;;;5.40;2.00;;;;;;;;;;6098994;23;20170;-81
2024/03/28 01:26:05;;;;;;;4.83;2.00;;;;;;;;;;6099233;23;20172;-82
2024/03/28 01:28:36;;;;;;;4.43;2.00;;;;;;;;;;6075815;23;20170;-81
2024/03/28 01:31:06;;;;;;;5.50;1.70;;;;;;;;;;6075471;23;20189;-80
2024/03/28 01:33:34;;;;;;;3.97;1.60;;;;;;;;;;6095925;23;20284;-81
2024/03/28 01:36:02;;;;;;;4.63;1.77;;;;;;;;;;6098670;23;20189;-81
2024/03/28 01:38:28;;;;;;;2.70;1.50;;;;;;;;;;6074501;23;20173;-80
2024/03/28 01:40:54;;;;;;;3.67;1.70;;;;;;;;;;6098994;23;20167;-81
2024/03/28 01:43:21;;;;;;;4.80;1.90;;;;;;;;;;6074580;23;20243;-81
2024/03/28 01:45:46;;;;;;;3.70;1.60;;;;;;;;;;6050899;23;20172;-80
2024/03/28 01:48:13;;;;;;;6.13;1.57;;;;;;;;;;6051133;23;20169;-81
2024/03/28 01:50:39;;;;;;;3.97;1.57;;;;;;;;;;6074817;23;20170;-81
2024/03/28 01:53:05;;;;;;;2.53;1.03;;;;;;;;;;6050377;23;20193;-81
2024/03/28 01:55:32;;;;;;;4.23;1.40;;;;;;;;;;6098668;23;20201;-80
2024/03/28 01:58:00;;;;;;;2.40;1.27;;;;;;;;;;6098397;23;20168;-80
2024/03/28 02:00:27;;;;;;;3.87;1.30;;;;;;;;;;6098568;23;20202;-81
2024/03/28 02:02:56;;;;;;;2.77;1.30;;;;;;;;;;6051292;23;20207;-81
2024/03/28 02:05:25;;;;;;;3.00;1.50;;;;;;;;;;6074806;23;20188;-81
2024/03/28 02:07:51;;;;;;;7.67;1.93;;;;;;;;;;6098065;23;20188;-81
2024/03/28 02:10:21;;;;;;;4.50;1.90;;;;;;;;;;6098488;23;20181;-81
2024/03/28 02:12:50;;;;;;;3.57;1.47;;;;;;;;;;6098790;23;20191;-81
2024/03/28 02:15:20;;;;;;;3.63;1.33;;;;;;;;;;6098438;23;20195;-81
2024/03/28 02:17:51;;;;;;;2.50;1.27;;;;;;;;;;6074300;23;20169;-81
2024/03/28 02:20:17;;;;;;;3.57;1.20;;;;;;;;;;6098600;23;20145;-82
2024/03/28 02:22:44;;;;;;;3.60;1.33;;;;;;;;;;6050226;23;20172;-81
2024/03/28 02:25:13;;;;;;;2.00;1.13;;;;;;;;;;6098196;23;20173;-81
2024/03/28 02:27:39;;;;;;;2.87;1.33;;;;;;;;;;6050290;23;20196;-81
2024/03/28 02:30:07;;;;;;;1.97;1.00;;;;;;;;;;6098143;23;20167;-80
2024/03/28 02:32:33;;;;;;;2.83;1.13;;;;;;;;;;6074380;23;20170;-81
2024/03/28 02:35:03;;;;;;;3.37;1.27;;;;;;;;;;6097580;23;20244;-81
2024/03/28 02:37:29;;;;;;;3.87;1.17;;;;;;;;;;6074197;23;20169;-80
2024/03/28 02:39:55;;;;;;;1.87;0.90;;;;;;;;;;6098103;23;20196;-80
2024/03/28 02:42:22;;;;;;;2.07;1.23;;;;;;;;;;6074093;23;20354;-81
2024/03/28 02:44:48;;;;;;;2.70;0.97;;;;;;;;;;6098046;23;20240;-82
2024/03/28 02:47:15;;;;;;;3.87;0.80;;;;;;;;;;6098071;23;20173;-82
2024/03/28 02:49:41;;;;;;;6.83;1.37;;;;;;;;;;6074283;23;20204;-80
2024/03/28 02:52:07;;;;;;;4.03;1.20;;;;;;;;;;6050042;23;20250;-81
2024/03/28 02:54:34;;;;;;;3.77;1.70;;;;;;;;;;6050113;23;20173;-80
2024/03/28 02:57:01;;;;;;;2.00;1.30;;;;;;;;;;6049905;23;20271;-82
2024/03/28 02:59:34;;;;;;;0.83;0.57;;;;;;;;;;6073696;23;20307;-81
2024/03/28 03:02:00;;;;;;;0.30;0.30;;;;;;;;;;6073843;23;20211;-82
2024/03/28 03:04:26;;;;;;;0.17;0.17;;;;;;;;;;6098187;23;20164;-81
2024/03/28 03:06:52;;;;;;;0.00;0.00;;;;;;;;;;6074114;23;20163;-81
2024/03/28 03:09:19;;;;;;;0.00;0.00;;;;;;;;;;6050084;23;20171;-80
2024/03/28 03:11:46;;;;;;;0.23;0.13;;;;;;;;;;6074344;23;20167;-81
2024/03/28 03:14:13;;;;;;;0.00;0.00;;;;;;;;;;6097826;23;20164;-81
2024/03/28 03:16:41;;;;;;;0.13;0.00;;;;;;;;;;6073904;23;20215;-81
2024/03/28 03:19:11;;;;;;;0.30;0.10;;;;;;;;;;6097938;23;20198;-81
2024/03/28 03:21:37;;;;;;;0.00;0.00;;;;;;;;;;6074044;23;20226;-81
2024/03/28 03:24:03;;;;;;;0.00;0.00;;;;;;;;;;6073623;23;20160;-81
2024/03/28 03:26:34;;;;;;;0.40;0.10;;;;;;;;;;6074260;23;20182;-81
2024/03/28 03:34:40;;;;;;;0.00;0.00;;;;;;;;;;6092484;23;20200;-81
2024/03/28 03:37:10;;;;;;;0.10;0.00;;;;;;;;;;6092789;23;20259;-82
2024/03/28 03:39:36;;;;;;;0.07;0.07;;;;;;;;;;6092962;23;20160;-81
2024/03/28 03:42:04;;;;;;;0.93;0.10;;;;;;;;;;6093108;23;20183;-81
2024/03/28 03:44:30;;;;;;;0.00;0.00;;;;;;;;;;6092728;23;20180;-82
2024/03/28 03:46:58;;;;;;;0.97;0.10;;;;;;;;;;6070229;23;20176;-83
2024/03/28 03:49:24;;;;;;;0.93;0.10;;;;;;;;;;6093630;23;20172;-82
2024/03/28 03:51:50;;;;;;;1.60;0.10;;;;;;;;;;6069549;23;20168;-82
2024/03/28 03:54:16;;;;;;;0.10;0.00;;;;;;;;;;6069081;23;20171;-82
2024/03/28 03:56:42;;;;;;;0.10;0.10;;;;;;;;;;6069497;23;20195;-82
2024/03/28 03:59:08;;;;;;;0.33;0.10;;;;;;;;;;6068937;23;20246;-83
2024/03/28 04:01:34;;;;;;;0.10;0.10;;;;;;;;;;6093093;23;20198;-82
2024/03/28 04:04:00;;;;;;;0.30;0.00;;;;;;;;;;6045057;23;20620;-81
2024/03/28 04:06:26;;;;;;;0.13;0.13;;;;;;;;;;6092791;23;20175;-81
2024/03/28 04:08:52;;;;;;;0.10;0.00;;;;;;;;;;6068731;23;20179;-81
2024/03/28 04:11:18;;;;;;;0.20;0.13;;;;;;;;;;6045255;23;20168;-81
2024/03/28 04:13:44;;;;;;;0.77;0.10;;;;;;;;;;6068411;23;20251;-81
2024/03/28 04:16:10;;;;;;;1.67;0.10;;;;;;;;;;6068961;23;20776;-81
2024/03/28 04:18:39;;;;;;;0.60;0.00;;;;;;;;;;6093463;23;20179;-81
2024/03/28 04:21:06;;;;;;;0.10;0.10;;;;;;;;;;6069531;23;20192;-81
2024/03/28 04:23:32;;;;;;;0.10;0.10;;;;;;;;;;6068722;23;20250;-81
2024/03/28 04:25:58;;;;;;;0.03;0.03;;;;;;;;;;6045511;23;20664;-81
2024/03/28 04:28:24;;;;;;;0.23;0.13;;;;;;;;;;6116763;23;20176;-81
2024/03/28 04:30:53;;;;;;;0.40;0.10;;;;;;;;;;6068604;23;20172;-81
2024/03/28 04:33:19;;;;;;;0.10;0.10;;;;;;;;;;6092650;23;20203;-81
2024/03/28 04:35:46;;;;;;;0.40;0.30;;;;;;;;;;6094009;23;20191;-81
2024/03/28 04:38:13;;;;;;;0.10;0.10;;;;;;;;;;6070805;23;20490;-80
2024/03/28 04:40:41;;;;;;;0.23;0.20;;;;;;;;;;6047349;23;20259;-82
2024/03/28 04:43:09;;;;;;;0.10;0.10;;;;;;;;;;6094378;23;20274;-81
2024/03/28 04:45:35;;;;;;;0.30;0.10;;;;;;;;;;6070059;23;20184;-80
2024/03/28 04:48:03;;;;;;;1.10;0.20;;;;;;;;;;6093921;23;20504;-81
2024/03/28 04:50:29;;;;;;;0.53;0.40;;;;;;;;;;6046355;23;20172;-81
2024/03/28 04:52:58;;;;;;;0.50;0.20;;;;;;;;;;6094252;23;20168;-80
2024/03/28 04:55:25;;;;;;;0.87;0.50;;;;;;;;;;6094734;23;20191;-83
2024/03/28 04:57:51;;;;;;;0.30;0.30;;;;;;;;;;6094497;23;20172;-83
2024/03/28 05:00:20;;;;;;;0.40;0.40;;;;;;;;;;6069289;23;20177;-82
2024/03/28 05:02:45;;;;;;;0.40;0.30;;;;;;;;;;6044772;23;20222;-83
2024/03/28 05:05:12;;;;;;;0.63;0.30;;;;;;;;;;6070634;23;20619;-83
2024/03/28 05:07:41;;;;;;;0.37;0.30;;;;;;;;;;6093964;23;20180;-82
2024/03/28 05:10:14;;;;;;;0.20;0.20;;;;;;;;;;6094281;23;20210;-81
2024/03/28 05:12:40;;;;;;;0.50;0.20;;;;;;;;;;6070550;23;20192;-82
2024/03/28 05:15:06;;;;;;;0.40;0.30;;;;;;;;;;6094557;23;20169;-82
2024/03/28 05:17:33;;;;;;;1.13;0.20;;;;;;;;;;6069984;23;20646;-82
2024/03/28 05:19:59;;;;;;;1.10;0.20;;;;;;;;;;6093936;23;20169;-81
2024/03/28 05:22:26;;;;;;;0.27;0.20;;;;;;;;;;6070189;23;20267;-81
2024/03/28 05:24:51;;;;;;;0.20;0.20;;;;;;;;;;6069908;23;20219;-82
2024/03/28 05:27:18;;;;;;;0.20;0.20;;;;;;;;;;6070165;23;20615;-81
2024/03/28 05:29:44;;;;;;;0.53;0.30;;;;;;;;;;6070290;23;20179;-81
2024/03/28 05:32:10;;;;;;;0.60;0.30;;;;;;;;;;6046463;23;20172;-81
2024/03/28 05:34:35;;;;;;;0.40;0.27;;;;;;;;;;6093755;23;20207;-81
2024/03/28 05:37:02;;;;;;;0.20;0.17;;;;;;;;;;6046586;23;20192;-81
2024/03/28 05:39:28;;;;;;;0.23;0.10;;;;;;;;;;6069805;23;20168;-82
2024/03/28 05:41:54;;;;;;;0.10;0.10;;;;;;;;;;6069934;23;20243;-81
2024/03/28 05:44:20;;;;;;;0.10;0.10;;;;;;;;;;6070157;23;20183;-82
2024/03/28 05:46:46;;;;;;;0.10;0.00;;;;;;;;;;6094317;23;20177;-81
2024/03/28 05:49:13;;;;;;;0.10;0.10;;;;;;;;;;6069904;23;20173;-80
2024/03/28 05:51:48;;;;;;;0.20;0.10;;;;;;;;;;6094159;23;20183;-81
2024/03/28 05:54:14;;;;;;;0.13;0.10;;;;;;;;;;6070061;23;20164;-82
2024/03/28 05:56:40;;;;;;;0.10;0.10;;;;;;;;;;6046230;23;20192;-81
2024/03/28 05:59:07;;;;;;;0.20;0.10;;;;;;;;;;6093911;23;20259;-81
2024/03/28 06:01:33;;;;;;;0.43;0.10;;;;;;;;;;6070327;23;20180;-82
2024/03/28 06:03:59;;;;;;;0.23;0.00;;;;;;;;;;6093850;23;20167;-82
2024/03/28 06:06:26;;;;;;;0.07;0.07;;;;;;;;;;6094050;23;20253;-81
2024/03/28 06:08:52;;;;;;;1.30;0.20;;;;;;;;;;6069854;23;20172;-81
2024/03/28 06:11:18;;;;;;;0.40;0.20;;;;;;;;;;6070473;23;20168;-81
2024/03/28 06:13:44;;;;;;;0.20;0.10;;;;;;;;;;6045990;23;20200;-81
2024/03/28 06:16:11;;;;;;;0.10;0.10;;;;;;;;;;6069979;23;20235;-83
2024/03/28 06:18:36;;;;;;;0.40;0.17;;;;;;;;;;6069910;23;20223;-81
2024/03/28 06:21:03;;;;;;;0.10;0.10;;;;;;;;;;6046258;23;20749;-81
2024/03/28 06:23:38;;;;;;;0.50;0.20;;;;;;;;;;6071258;23;20163;-81
2024/03/28 06:26:05;;;;;;;1.30;0.97;;;;;;;;;;6093843;23;20172;-81
2024/03/28 06:28:31;;;;;;;6.90;5.10;;;;;;;;;;6118268;23;20201;-82
2024/03/28 06:30:59;;;;;;;10.63;8.43;;;;;;;;;;6094106;23;20176;-82
2024/03/28 06:33:26;;;;;;;8.23;6.03;;;;;;;;;;6046002;23;20243;-81
2024/03/28 06:35:52;;;;;;;5.77;4.77;;;;;;;;;;6069707;23;20780;-82
2024/03/28 06:38:18;;;;;;;3.67;3.00;;;;;;;;;;6093763;23;20171;-82
2024/03/28 06:40:45;;;;;;;1.87;1.60;;;;;;;;;;6070144;23;20172;-82
2024/03/28 06:43:11;;;;;;;2.03;1.10;;;;;;;;;;6093516;23;20251;-81
2024/03/28 06:45:38;;;;;;;0.90;0.70;;;;;;;;;;6093768;23;20244;-81
2024/03/28 06:48:04;;;;;;;0.40;0.30;;;;;;;;;;6093796;23;20182;-81
2024/03/28 06:50:30;;;;;;;0.20;0.20;;;;;;;;;;6093568;23;20215;-81
2024/03/28 06:52:58;;;;;;;0.30;0.30;;;;;;;;;;6093972;23;20679;-81
2024/03/28 06:55:26;;;;;;;0.93;0.43;;;;;;;;;;6092929;23;20176;-82
2024/03/28 06:58:03;;;;;;;1.23;0.40;;;;;;;;;;6067931;23;20171;-81
2024/03/28 07:00:31;;;;;;;0.50;0.40;;;;;;;;;;6070017;23;20223;-80
2024/03/28 07:02:57;;;;;;;0.60;0.20;;;;;;;;;;6045972;23;20609;-82
2024/03/28 07:05:23;;;;;;;1.50;0.40;;;;;;;;;;6069468;23;20530;-82
2024/03/28 07:07:51;;;;;;;0.33;0.20;;;;;;;;;;6093913;23;20170;-81
2024/03/28 07:10:16;;;;;;;0.27;0.20;;;;;;;;;;6069331;23;20173;-81
2024/03/28 07:12:45;;;;;;;0.93;0.10;;;;;;;;;;6093270;23;20253;-81
2024/03/28 07:15:12;;;;;;;0.23;0.20;;;;;;;;;;6069481;23;20170;-82
2024/03/28 07:17:38;;;;;;;0.20;0.20;;;;;;;;;;6093402;23;20169;-81
2024/03/28 07:20:08;;;;;;;0.30;0.30;;;;;;;;;;6069448;23;20193;-81
2024/03/28 07:22:34;;;;;;;0.40;0.30;;;;;;;;;;6045419;23;20205;-82
2024/03/28 07:25:02;;;;;;;0.30;0.30;;;;;;;;;;6069490;23;20165;-81
2024/03/28 07:27:31;;;;;;;0.50;0.30;;;;;;;;;;6093377;23;20175;-82
2024/03/28 07:29:58;;;;;;;0.20;0.20;;;;;;;;;;6093363;23;20152;-81
2024/03/28 07:32:27;;;;;;;0.33;0.30;;;;;;;;;;6092964;23;20178;-81
2024/03/28 07:34:56;;;;;;;0.73;0.20;;;;;;;;;;6070201;23;20203;-83
2024/03/28 07:37:23;;;;;;;0.30;0.30;;;;;;;;;;6069299;23;20264;-81
2024/03/28 07:39:52;;;;;;;0.47;0.40;;;;;;;;;;6093179;23;20221;-81
2024/03/28 07:42:24;;;;;;;0.20;0.20;;;;;;;;;;6069911;23;20192;-81
2024/03/28 07:44:50;;;;;;;0.40;0.30;;;;;;;;;;6068798;23;20169;-81
2024/03/28 07:47:21;;;;;;;0.40;0.30;;;;;;;;;;6045601;23;20172;-82
2024/03/28 07:49:47;;;;;;;0.23;0.23;;;;;;;;;;6092930;23;20172;-81
2024/03/28 07:52:13;;;;;;;0.30;0.30;;;;;;;;;;6069145;23;20602;-81
2024/03/28 07:54:40;;;;;;;0.30;0.30;;;;;;;;;;6068857;23;20184;-82
2024/03/28 07:57:06;;;;;;;0.37;0.30;;;;;;;;;;6092864;23;20195;-81
2024/03/28 07:59:32;;;;;;;0.50;0.30;;;;;;;;;;6092768;23;20175;-82
2024/03/28 08:01:58;;;;;;;1.60;0.40;;;;;;;;;;6069170;23;20173;-81
2024/03/28 08:04:24;;;;;;;0.40;0.30;;;;;;;;;;6069292;23;20161;-82
2024/03/28 08:06:52;;;;;;;1.17;0.30;;;;;;;;;;6093451;23;20234;-81
2024/03/28 08:09:18;;;;;;;0.60;0.50;;;;;;;;;;6068677;23;20262;-81
2024/03/28 08:11:46;;;;;;;0.33;0.30;;;;;;;;;;6093521;23;20171;-82
2024/03/28 08:14:12;;;;;;;0.67;0.50;;;;;;;;;;6068950;23;20167;-81
2024/03/28 08:16:38;;;;;;;0.47;0.30;;;;;;;;;;6068998;23;20642;-81
2024/03/28 08:19:04;;;;;;;0.47;0.30;;;;;;;;;;6045483;23;20168;-81
2024/03/28 08:21:30;;;;;;;2.33;1.50;;;;;;;;;;6069836;23;20703;-81
2024/03/28 08:23:57;;;;;;;2.40;1.20;;;;;;;;;;6116991;23;20176;-81
2024/03/28 08:26:24;;;;;;;0.60;0.50;;;;;;;;;;6093502;23;20168;-81
2024/03/28 08:28:50;;;;;;;0.83;0.30;;;;;;;;;;6092750;23;20169;-82
2024/03/28 08:31:16;;;;;;;1.50;1.10;;;;;;;;;;6092561;23;20643;-82
2024/03/28 08:33:43;;;;;;;2.60;1.23;;;;;;;;;;6093473;23;20691;-82
2024/03/28 08:36:12;;;;;;;0.90;0.80;;;;;;;;;;6097882;23;20191;-81
2024/03/28 08:38:40;;;;;;;0.33;0.33;;;;;;;;;;6098208;23;20607;-81
2024/03/28 08:41:06;;;;;;;0.60;0.40;;;;;;;;;;6097936;23;20168;-81
2024/03/28 08:43:47;;;;;;;1.87;0.73;;;;;;;;;;6098081;23;20662;-81
2024/03/28 08:46:14;;;;;;;0.50;0.40;;;;;;;;;;6046766;23;20183;-82
2024/03/28 08:48:45;;;;;;;0.73;0.50;;;;;;;;;;6096004;23;20214;-82
2024/03/28 08:51:13;;;;;;;0.60;0.50;;;;;;;;;;6047036;23;20176;-81
2024/03/28 08:53:40;;;;;;;0.87;0.50;;;;;;;;;;6046968;23;20631;-81
2024/03/28 08:56:08;;;;;;;1.00;0.60;;;;;;;;;;6072762;23;20188;-82
2024/03/28 08:58:37;;;;;;;1.73;0.80;;;;;;;;;;6073475;23;20171;-82
2024/03/28 09:01:06;;;;;;;1.47;0.50;;;;;;;;;;6074529;23;20239;-81
2024/03/28 09:03:32;;;;;;;1.20;0.60;;;;;;;;;;6049455;23;20255;-82
2024/03/28 09:05:59;;;;;;;1.47;0.93;;;;;;;;;;6072602;23;20181;-81
2024/03/28 09:08:24;;;;;;;1.23;0.50;;;;;;;;;;6070500;23;20244;-81
2024/03/28 09:10:54;;;;;;;0.90;0.50;;;;;;;;;;6070063;23;20258;-82
2024/03/28 09:13:21;;;;;;;0.77;0.60;;;;;;;;;;6047377;23;20192;-81
2024/03/28 09:15:47;;;;;;;0.43;0.40;;;;;;;;;;6097531;23;20196;-81
2024/03/28 09:18:19;;;;;;;0.67;0.60;;;;;;;;;;6075894;23;20223;-81
2024/03/28 09:20:46;;;;;;;1.03;0.60;;;;;;;;;;6050665;23;20168;-82
2024/03/28 09:23:13;;;;;;;0.60;0.60;;;;;;;;;;6051608;23;20255;-82
2024/03/28 09:25:41;;;;;;;1.43;0.60;;;;;;;;;;6099362;23;20178;-81
2024/03/28 09:28:10;;;;;;;1.70;0.60;;;;;;;;;;6075430;23;20172;-82
2024/03/28 09:30:36;;;;;;;0.73;0.60;;;;;;;;;;6051620;23;20179;-82
2024/03/28 09:33:03;;;;;;;0.77;0.60;;;;;;;;;;6099855;23;20226;-82
2024/03/28 09:35:30;;;;;;;1.07;0.40;;;;;;;;;;6094056;23;20192;-81
2024/03/28 09:37:59;;;;;;;0.83;0.57;;;;;;;;;;6068840;23;20177;-81
2024/03/28 09:40:26;;;;;;;1.13;0.70;;;;;;;;;;6093141;23;20361;-82
2024/03/28 09:42:54;;;;;;;1.07;0.60;;;;;;;;;;6042300;23;20212;-81
2024/03/28 09:45:27;;;;;;;0.60;0.50;;;;;;;;;;6091046;23;20204;-82
2024/03/28 09:47:54;;;;;;;0.73;0.73;;;;;;;;;;6094156;23;20255;-81
2024/03/28 09:50:22;;;;;;;0.70;0.50;;;;;;;;;;6093536;23;20255;-80
2024/03/28 09:52:50;;;;;;;1.20;0.47;;;;;;;;;;6092447;23;20215;-82
2024/03/28 09:55:17;;;;;;;1.07;0.60;;;;;;;;;;6092778;23;20251;-81
2024/03/28 09:57:43;;;;;;;1.10;0.70;;;;;;;;;;6070300;23;20184;-81
2024/03/28 10:00:12;;;;;;;0.77;0.50;;;;;;;;;;6046497;23;20190;-82
2024/03/28 10:02:52;;;;;;;0.57;0.53;;;;;;;;;;6094553;23;20172;-82
2024/03/28 10:05:20;;;;;;;0.90;0.50;;;;;;;;;;6070118;23;20164;-82
2024/03/28 10:07:50;;;;;;;0.63;0.40;;;;;;;;;;6046735;23;20172;-82
2024/03/28 10:10:16;;;;;;;0.40;0.40;;;;;;;;;;6070038;23;20168;-81
2024/03/28 10:12:54;;;;;;;1.03;0.50;;;;;;;;;;6070445;23;20200;-82
2024/03/28 10:15:22;;;;;;;0.73;0.47;;;;;;;;;;6046551;23;20172;-82
2024/03/28 10:17:58;;;;;;;0.47;0.47;;;;;;;;;;6093896;23;20651;-82
2024/03/28 10:20:24;;;;;;;1.00;0.40;;;;;;;;;;6045377;23;20173;-82
2024/03/28 10:22:54;;;;;;;0.40;0.30;;;;;;;;;;6067546;23;20256;-82
2024/03/28 10:25:21;;;;;;;0.30;0.30;;;;;;;;;;6091403;23;20256;-82
2024/03/28 10:28:01;;;;;;;0.40;0.40;;;;;;;;;;6070222;23;20184;-82
2024/03/28 10:30:28;;;;;;;0.60;0.40;;;;;;;;;;6070225;23;20160;-82
2024/03/28 10:33:06;;;;;;;2.30;0.40;;;;;;;;;;6070100;23;20176;-82
2024/03/28 10:35:33;;;;;;;0.60;0.40;;;;;;;;;;6069762;23;20192;-83
2024/03/28 10:38:00;;;;;;;0.60;0.40;;;;;;;;;;6070527;23;20636;-82
2024/03/28 10:40:27;;;;;;;0.70;0.70;;;;;;;;;;6093871;23;20680;-82
2024/03/28 10:42:59;;;;;;;0.50;0.50;;;;;;;;;;6045893;23;20192;-82
2024/03/28 10:45:30;;;;;;;1.60;0.50;;;;;;;;;;6069668;23;20186;-81
2024/03/28 10:47:57;;;;;;;0.60;0.50;;;;;;;;;;6069665;23;20174;-81
2024/03/28 10:50:28;;;;;;;1.80;0.30;;;;;;;;;;6093651;23;20743;-81
2024/03/28 10:52:56;;;;;;;0.70;0.30;;;;;;;;;;6070024;23;20170;-81
2024/03/28 10:55:31;;;;;;;0.40;0.40;;;;;;;;;;6093611;23;20193;-81
2024/03/28 10:58:00;;;;;;;0.30;0.30;;;;;;;;;;6069822;23;20178;-83
2024/03/28 11:00:27;;;;;;;1.47;0.30;;;;;;;;;;6069713;23;20175;-82
2024/03/28 11:02:55;;;;;;;0.23;0.20;;;;;;;;;;6069730;23;20523;-82
2024/03/28 11:05:29;;;;;;;1.13;0.30;;;;;;;;;;6093181;23;20174;-82
2024/03/28 11:07:55;;;;;;;0.40;0.40;;;;;;;;;;6093999;23;20151;-82
2024/03/28 11:10:24;;;;;;;1.10;0.30;;;;;;;;;;6069172;23;20191;-82
2024/03/28 11:12:57;;;;;;;0.30;0.30;;;;;;;;;;6046675;23;20284;-82
2024/03/28 11:15:23;;;;;;;0.43;0.33;;;;;;;;;;6045713;23;20213;-81
2024/03/28 11:17:49;;;;;;;0.60;0.40;;;;;;;;;;6069114;23;20202;-82
2024/03/28 11:20:16;;;;;;;0.33;0.30;;;;;;;;;;6045336;23;20704;-82
2024/03/28 11:22:46;;;;;;;0.40;0.30;;;;;;;;;;6092952;23;20249;-82
2024/03/28 11:25:30;;;;;;;1.17;0.30;;;;;;;;;;6045117;23;20210;-82
2024/03/28 11:28:03;;;;;;;0.53;0.30;;;;;;;;;;6045649;23;20172;-81
2024/03/28 11:30:32;;;;;;;0.30;0.30;;;;;;;;;;6093101;23;20159;-82
2024/03/28 11:33:04;;;;;;;0.20;0.20;;;;;;;;;;6070043;23;20194;-81
2024/03/28 11:35:33;;;;;;;1.03;0.30;;;;;;;;;;6092710;23;20201;-81
2024/03/28 11:38:01;;;;;;;0.43;0.43;;;;;;;;;;6069016;23;20743;-81
2024/03/28 11:40:30;;;;;;;0.20;0.20;;;;;;;;;;6092674;23;20183;-81
2024/03/28 11:43:07;;;;;;;2.13;0.40;;;;;;;;;;6092592;23;20220;-82
2024/03/28 11:45:33;;;;;;;0.70;0.40;;;;;;;;;;6068591;23;20175;-80
2024/03/28 11:48:01;;;;;;;0.10;0.10;;;;;;;;;;6045495;23;20587;-81
2024/03/28 11:50:28;;;;;;;0.30;0.30;;;;;;;;;;6068621;23;20175;-81
2024/03/28 11:53:01;;;;;;;0.77;0.40;;;;;;;;;;6069216;23;20248;-81
2024/03/28 11:55:31;;;;;;;0.53;0.30;;;;;;;;;;6068887;23;20306;-81
2024/03/28 11:58:03;;;;;;;0.47;0.40;;;;;;;;;;6046179;23;20194;-80
2024/03/28 12:00:30;;;;;;;0.20;0.20;;;;;;;;;;6092502;23;20619;-81
2024/03/28 12:02:58;;;;;;;0.40;0.30;;;;;;;;;;6045230;23;20171;-81
2024/03/28 12:05:27;;;;;;;0.53;0.20;;;;;;;;;;6093026;23;20176;-81
2024/03/28 12:08:02;;;;;;;0.63;0.28;;;;;;;;;;6045451;23;20175;-80
2024/03/28 12:10:29;;;;;;;0.30;0.30;;;;;;;;;;6068909;23;20171;-81
2024/03/28 12:12:55;;;;;;;0.30;0.30;;;;;;;;;;6045068;23;20167;-80
2024/03/28 12:15:22;;;;;;;0.55;0.25;;;;;;;;;;6091060;23;20172;-80
2024/03/28 12:17:48;;;;;;;0.30;0.30;;;;;;;;;;6091094;23;20287;-80
2024/03/28 12:20:23;;;;;;;0.40;0.30;;;;;;;;;;6092017;23;20772;-80
2024/03/28 12:23:04;;;;;;;0.57;0.30;;;;;;;;;;6068794;23;20176;-80
2024/03/28 12:25:31;;;;;;;0.28;0.28;;;;;;;;;;6068767;23;20615;-80
2024/03/28 12:27:59;;;;;;;0.52;0.32;;;;;;;;;;6092897;23;20176;-80
2024/03/28 12:30:26;;;;;;;0.47;0.40;;;;;;;;;;6068431;23;20176;-80
2024/03/28 12:33:05;;;;;;;0.30;0.30;;;;;;;;;;6068590;23;20177;-80
2024/03/28 12:35:33;;;;;;;0.47;0.35;;;;;;;;;;6091936;23;20203;-80
2024/03/28 12:37:59;;;;;;;0.50;0.50;;;;;;;;;;6044501;23;20264;-80
2024/03/28 12:40:25;;;;;;;0.30;0.30;;;;;;;;;;6092078;23;20178;-81
2024/03/28 12:42:55;;;;;;;0.50;0.30;;;;;;;;;;6091955;23;20196;-82
2024/03/28 12:45:28;;;;;;;1.98;0.28;;;;;;;;;;6092115;23;20319;-80
2024/03/28 12:47:54;;;;;;;0.30;0.30;;;;;;;;;;6068526;23;20180;-80
2024/03/28 12:50:24;;;;;;;0.52;0.28;;;;;;;;;;6092638;23;20487;-80
2024/03/28 12:52:52;;;;;;;0.28;0.28;;;;;;;;;;6092844;23;20196;-80
2024/03/28 12:55:19;;;;;;;0.73;0.47;;;;;;;;;;6069651;23;20179;-81
2024/03/28 12:57:45;;;;;;;0.40;0.20;;;;;;;;;;6094604;23;20185;-81
2024/03/28 13:00:15;;;;;;;2.20;0.60;;;;;;;;;;6094148;23;20178;-81
2024/03/28 13:02:41;;;;;;;2.15;0.52;;;;;;;;;;6070822;23;20176;-80
2024/03/28 13:05:11;;;;;;;1.33;0.30;;;;;;;;;;6070357;23;20171;-80
2024/03/28 13:07:38;;;;;;;0.40;0.30;;;;;;;;;;6094066;23;20247;-81
2024/03/28 13:10:05;;;;;;;1.37;0.50;;;;;;;;;;6070110;23;20192;-81
2024/03/28 13:12:32;;;;;;;1.13;0.30;;;;;;;;;;6070768;23;20643;-81
2024/03/28 13:15:01;;;;;;;1.13;0.33;;;;;;;;;;6070651;23;20177;-81
2024/03/28 13:17:27;;;;;;;0.87;0.20;;;;;;;;;;6094603;23;20184;-83
2024/03/28 13:19:53;;;;;;;0.77;0.30;;;;;;;;;;6094162;23;20172;-81
2024/03/28 13:22:19;;;;;;;0.73;0.30;;;;;;;;;;6092494;23;20243;-81
2024/03/28 13:24:46;;;;;;;0.67;0.30;;;;;;;;;;6070043;23;20178;-80
2024/03/28 13:27:12;;;;;;;0.30;0.30;;;;;;;;;;6070491;23;20174;-82
2024/03/28 13:29:40;;;;;;;1.00;0.43;;;;;;;;;;6118622;23;20207;-81
2024/03/28 13:32:07;;;;;;;0.90;0.60;;;;;;;;;;6118438;23;20167;-81
2024/03/28 13:34:33;;;;;;;0.77;0.20;;;;;;;;;;6069437;23;20201;-81
2024/03/28 13:37:00;;;;;;;0.50;0.30;;;;;;;;;;6094120;23;20278;-81
2024/03/28 13:39:26;;;;;;;1.07;0.50;;;;;;;;;;6093822;23;20266;-81
2024/03/28 13:41:52;;;;;;;1.73;0.60;;;;;;;;;;6070126;23;20195;-81
2024/03/28 13:44:20;;;;;;;1.20;0.40;;;;;;;;;;6118375;23;20500;-81
2024/03/28 13:46:47;;;;;;;2.87;0.30;;;;;;;;;;6093908;23;20174;-82
2024/03/28 13:49:27;;;;;;;1.30;0.30;;;;;;;;;;6093765;23;20170;-81
2024/03/28 13:51:54;;;;;;;2.00;0.40;;;;;;;;;;6070160;23;20625;-81
2024/03/28 13:54:23;;;;;;;0.57;0.37;;;;;;;;;;6093749;23;20261;-81
2024/03/28 13:56:51;;;;;;;0.63;0.40;;;;;;;;;;6118716;23;20187;-81
2024/03/28 13:59:17;;;;;;;1.90;0.30;;;;;;;;;;6069706;23;20168;-81
2024/03/28 14:01:43;;;;;;;0.60;0.60;;;;;;;;;;6093819;23;20689;-82
2024/03/28 14:04:08;;;;;;;1.93;0.60;;;;;;;;;;6069831;23;20197;-82
2024/03/28 14:06:35;;;;;;;2.47;0.40;;;;;;;;;;6069814;23;20621;-81
2024/03/28 14:09:01;;;;;;;1.10;0.27;;;;;;;;;;6118047;23;20245;-81
2024/03/28 14:11:29;;;;;;;0.63;0.40;;;;;;;;;;6093715;23;20177;-81
2024/03/28 14:13:59;;;;;;;1.53;0.40;;;;;;;;;;6093729;23;20259;-81
2024/03/28 14:16:25;;;;;;;0.93;0.27;;;;;;;;;;6093498;23;20632;-81
2024/03/28 14:18:51;;;;;;;1.47;0.27;;;;;;;;;;6069529;23;20168;-81
2024/03/28 14:21:17;;;;;;;1.53;0.30;;;;;;;;;;6069539;23;20225;-83
2024/03/28 14:23:43;;;;;;;2.20;0.50;;;;;;;;;;6093858;23;20690;-81
2024/03/28 14:26:11;;;;;;;1.83;0.30;;;;;;;;;;6070001;23;20170;-81
2024/03/28 14:28:37;;;;;;;0.50;0.30;;;;;;;;;;6093547;23;20172;-81
2024/03/28 14:31:05;;;;;;;0.40;0.30;;;;;;;;;;6069419;23;20233;-81
2024/03/28 14:33:32;;;;;;;1.50;0.40;;;;;;;;;;6069452;23;20247;-81
2024/03/28 14:36:02;;;;;;;0.50;0.40;;;;;;;;;;6092701;23;20206;-81
2024/03/28 14:38:33;;;;;;;0.87;0.47;;;;;;;;;;6093502;23;20248;-81
2024/03/28 14:41:04;;;;;;;0.60;0.30;;;;;;;;;;6069819;23;20165;-81
2024/03/28 14:43:37;;;;;;;0.93;0.40;;;;;;;;;;6069485;23;20186;-81
2024/03/28 14:46:16;;;;;;;1.40;0.30;;;;;;;;;;6093256;23;20160;-81
2024/03/28 14:48:44;;;;;;;1.63;0.70;;;;;;;;;;6093493;23;20155;-81
2024/03/28 14:51:12;;;;;;;0.43;0.40;;;;;;;;;;6093870;23;20202;-80